createdAt,value
2017-11-22T00:01:44.234Z,96608.77
2017-11-22T00:04:10.339Z,96599.13
2017-11-22T00:06:36.509Z,96603.16
2017-11-22T00:09:02.618Z,96601.75
2017-11-22T00:11:28.689Z,96600.91
2017-11-22T00:13:54.852Z,96594.37
2017-11-22T00:16:21.014Z,96592.08
2017-11-22T00:18:47.109Z,96590.61
2017-11-22T00:21:13.207Z,96592.20
2017-11-22T00:23:39.401Z,96592.61
2017-11-22T00:26:05.497Z,96594.23
2017-11-22T00:28:31.621Z,96591.51
2017-11-22T00:30:57.737Z,96593.23
2017-11-22T00:33:23.825Z,96590.97
2017-11-22T00:35:49.951Z,96583.00
2017-11-22T00:38:16.085Z,96585.86
2017-11-22T00:40:42.224Z,96590.22
2017-11-22T00:43:08.357Z,96591.30
2017-11-22T00:45:34.471Z,96591.21
2017-11-22T00:48:00.617Z,96593.75
2017-11-22T00:50:26.747Z,96587.51
2017-11-22T00:52:52.852Z,96595.30
2017-11-22T00:55:18.950Z,96588.44
2017-11-22T00:57:45.054Z,96586.48
2017-11-22T01:00:11.196Z,96599.48
2017-11-22T01:02:37.405Z,96591.36
2017-11-22T01:05:03.510Z,96593.78
2017-11-22T01:07:29.813Z,96591.75
2017-11-22T01:09:55.926Z,96588.28
2017-11-22T01:12:22.034Z,96588.34
2017-11-22T01:14:48.170Z,96588.67
2017-11-22T01:17:14.286Z,96594.98
2017-11-22T01:19:40.462Z,96596.88
2017-11-22T01:22:06.557Z,96591.51
2017-11-22T01:24:32.633Z,96577.92
2017-11-22T01:26:58.742Z,96585.80
2017-11-22T01:29:24.885Z,96583.66
2017-11-22T01:31:51.114Z,96587.74
2017-11-22T01:34:17.204Z,96588.11
2017-11-22T01:36:43.304Z,96584.58
2017-11-22T01:39:09.429Z,96587.45
2017-11-22T01:41:35.577Z,96584.34
2017-11-22T01:44:01.671Z,96583.03
2017-11-22T01:46:27.753Z,96574.81
2017-11-22T01:48:53.832Z,96572.09
2017-11-22T01:51:19.877Z,96572.95
2017-11-22T01:53:45.998Z,96567.31
2017-11-22T01:56:12.137Z,96557.66
2017-11-22T01:58:38.393Z,96556.29
2017-11-22T02:01:04.521Z,96554.73
2017-11-22T02:03:30.639Z,96559.99
2017-11-22T02:05:56.735Z,96562.54
2017-11-22T02:08:22.818Z,96560.98
2017-11-22T02:10:48.938Z,96550.68
2017-11-22T02:13:15.102Z,96553.83
2017-11-22T02:15:41.259Z,96552.96
2017-11-22T02:18:07.352Z,96542.70
2017-11-22T02:20:33.488Z,96539.85
2017-11-22T02:22:59.587Z,96540.93
2017-11-22T02:25:25.701Z,96540.89
2017-11-22T02:27:51.825Z,96547.55
2017-11-22T02:30:17.925Z,96546.23
2017-11-22T02:32:44.099Z,96550.66
2017-11-22T02:35:10.558Z,96546.33
2017-11-22T02:37:36.633Z,96553.22
2017-11-22T02:40:02.847Z,96544.56
2017-11-22T02:42:28.957Z,96548.96
2017-11-22T02:44:55.015Z,96556.23
2017-11-22T02:47:21.126Z,96552.72
2017-11-22T02:49:47.306Z,96549.27
2017-11-22T02:52:13.462Z,96552.76
2017-11-22T02:54:39.546Z,96555.70
2017-11-22T02:57:05.622Z,96557.38
2017-11-22T02:59:31.777Z,96549.04
2017-11-22T03:01:57.909Z,96550.43
2017-11-22T03:04:23.984Z,96546.59
2017-11-22T03:06:50.094Z,96545.56
2017-11-22T03:09:16.245Z,96550.00
2017-11-22T03:11:42.386Z,96551.40
2017-11-22T03:14:08.492Z,96551.40
2017-11-22T03:16:34.590Z,96546.82
2017-11-22T03:19:00.721Z,96544.88
2017-11-22T03:21:26.786Z,96545.34
2017-11-22T03:23:52.920Z,96551.38
2017-11-22T03:26:19.030Z,96547.27
2017-11-22T03:28:45.072Z,96548.14
2017-11-22T03:31:11.200Z,96547.67
2017-11-22T03:33:37.317Z,96543.34
2017-11-22T03:36:03.394Z,96547.11
2017-11-22T03:38:29.509Z,96547.59
2017-11-22T03:40:55.682Z,96548.34
2017-11-22T03:43:21.810Z,96543.95
2017-11-22T03:45:47.938Z,96548.49
2017-11-22T03:48:14.929Z,96551.75
2017-11-22T03:50:47.150Z,96542.92
2017-11-22T03:53:19.504Z,96540.98
2017-11-22T03:55:45.725Z,96543.32
2017-11-22T03:58:16.717Z,96543.47
2017-11-22T04:00:42.762Z,96545.86
2017-11-22T04:03:08.942Z,96542.88
2017-11-22T04:05:36.894Z,96536.89
2017-11-22T04:08:03.082Z,96539.13
2017-11-22T04:10:29.257Z,96538.39
2017-11-22T04:12:55.357Z,96533.14
2017-11-22T04:15:21.513Z,96530.63
2017-11-22T04:17:47.658Z,96528.00
2017-11-22T04:20:19.998Z,96530.81
2017-11-22T04:22:46.121Z,96528.12
2017-11-22T04:25:12.222Z,96520.23
2017-11-22T04:27:38.353Z,96526.48
2017-11-22T04:30:04.434Z,96526.55
2017-11-22T04:32:30.589Z,96524.61
2017-11-22T04:34:56.725Z,96521.76
2017-11-22T04:37:22.845Z,96522.06
2017-11-22T04:39:48.945Z,96520.59
2017-11-22T04:42:15.038Z,96515.48
2017-11-22T04:44:41.156Z,96519.75
2017-11-22T04:47:07.305Z,96512.17
2017-11-22T04:49:33.375Z,96512.31
2017-11-22T04:51:59.506Z,96510.94
2017-11-22T04:54:25.629Z,96513.33
2017-11-22T04:56:51.746Z,96511.86
2017-11-22T04:59:17.857Z,96511.02
2017-11-22T05:01:43.965Z,96520.34
2017-11-22T05:04:10.134Z,96521.03
2017-11-22T05:06:36.247Z,96518.05
2017-11-22T05:09:02.330Z,96513.95
2017-11-22T05:11:28.460Z,96516.82
2017-11-22T05:13:54.581Z,96506.66
2017-11-22T05:16:20.937Z,96509.23
2017-11-22T05:18:47.072Z,96506.57
2017-11-22T05:21:13.213Z,96506.69
2017-11-22T05:23:39.371Z,96496.71
2017-11-22T05:26:05.445Z,96490.89
2017-11-22T05:28:31.589Z,96492.84
2017-11-22T05:30:57.733Z,96494.75
2017-11-22T05:33:23.834Z,96497.00
2017-11-22T05:35:49.942Z,96490.59
2017-11-22T05:38:16.090Z,96495.37
2017-11-22T05:40:42.195Z,96487.56
2017-11-22T05:43:08.335Z,96492.14
2017-11-22T05:45:34.471Z,96490.12
2017-11-22T05:48:00.585Z,96487.72
2017-11-22T05:50:26.710Z,96493.73
2017-11-22T05:52:52.781Z,96503.17
2017-11-22T05:55:18.880Z,96496.91
2017-11-22T05:57:45.012Z,96502.64
2017-11-22T06:00:13.892Z,96497.77
2017-11-22T06:02:40.037Z,96493.72
2017-11-22T06:05:06.092Z,96497.03
2017-11-22T06:07:32.205Z,96502.86
2017-11-22T06:09:58.318Z,96490.34
2017-11-22T06:12:24.422Z,96496.83
2017-11-22T06:14:51.408Z,96488.23
2017-11-22T06:17:17.534Z,96492.27
2017-11-22T06:19:43.662Z,96486.45
2017-11-22T06:22:09.814Z,96491.61
2017-11-22T06:24:35.895Z,96496.84
2017-11-22T06:27:02.070Z,96493.72
2017-11-22T06:29:28.251Z,96497.42
2017-11-22T06:31:54.386Z,96501.90
2017-11-22T06:34:20.517Z,96497.56
2017-11-22T06:36:46.641Z,96498.88
2017-11-22T06:39:15.653Z,96491.53
2017-11-22T06:41:41.857Z,96501.95
2017-11-22T06:44:08.038Z,96498.42
2017-11-22T06:46:34.142Z,96500.03
2017-11-22T06:49:00.281Z,96504.06
2017-11-22T06:51:26.480Z,96497.89
2017-11-22T06:53:52.609Z,96511.42
2017-11-22T06:56:18.749Z,96507.92
2017-11-22T06:58:44.841Z,96513.11
2017-11-22T07:01:10.976Z,96522.02
2017-11-22T07:03:43.081Z,96532.83
2017-11-22T07:06:09.181Z,96544.17
2017-11-22T07:08:35.389Z,96543.34
2017-11-22T07:11:01.548Z,96545.48
2017-11-22T07:13:27.662Z,96544.50
2017-11-22T07:15:54.699Z,96540.64
2017-11-22T07:18:20.829Z,96546.08
2017-11-22T07:20:46.917Z,96550.41
2017-11-22T07:23:13.044Z,96553.34
2017-11-22T07:25:39.122Z,96554.27
2017-11-22T07:28:05.254Z,96560.53
2017-11-22T07:30:31.450Z,96568.39
2017-11-22T07:32:57.545Z,96576.52
2017-11-22T07:35:29.666Z,96573.67
2017-11-22T07:38:01.707Z,96568.05
2017-11-22T07:40:29.755Z,96567.34
2017-11-22T07:42:55.913Z,96565.48
2017-11-22T07:45:22.025Z,96560.32
2017-11-22T07:47:54.281Z,96568.95
2017-11-22T07:50:20.399Z,96569.08
2017-11-22T07:52:46.559Z,96554.73
2017-11-22T07:55:12.712Z,96557.42
2017-11-22T07:57:38.829Z,96554.17
2017-11-22T08:00:04.944Z,96555.66
2017-11-22T08:02:31.082Z,96554.52
2017-11-22T08:04:57.823Z,96553.20
2017-11-22T08:07:24.973Z,96558.70
2017-11-22T08:09:51.091Z,96568.44
2017-11-22T08:12:17.209Z,96565.63
2017-11-22T08:14:43.373Z,96567.03
2017-11-22T08:17:09.519Z,96565.69
2017-11-22T08:19:35.677Z,96568.16
2017-11-22T08:22:01.797Z,96560.75
2017-11-22T08:24:27.914Z,96565.47
2017-11-22T08:26:54.045Z,96559.43
2017-11-22T08:29:20.154Z,96562.41
2017-11-22T08:31:46.270Z,96571.25
2017-11-22T08:34:12.397Z,96575.22
2017-11-22T08:36:38.493Z,96577.94
2017-11-22T08:39:04.615Z,96573.69
2017-11-22T08:41:36.687Z,96574.99
2017-11-22T08:44:02.778Z,96575.14
2017-11-22T08:46:28.894Z,96577.53
2017-11-22T08:48:55.025Z,96577.45
2017-11-22T08:51:21.175Z,96577.91
2017-11-22T08:53:47.309Z,96579.63
2017-11-22T08:56:19.468Z,96580.42
2017-11-22T08:58:45.574Z,96583.38
2017-11-22T09:01:11.722Z,96580.64
2017-11-22T09:03:43.825Z,96583.10
2017-11-22T09:06:16.226Z,96581.66
2017-11-22T09:08:42.337Z,96596.75
2017-11-22T09:11:08.457Z,96598.08
2017-11-22T09:13:34.573Z,96594.57
2017-11-22T09:16:00.667Z,96600.70
2017-11-22T09:18:32.738Z,96604.02
2017-11-22T09:20:58.851Z,96610.90
2017-11-22T09:23:24.948Z,96605.05
2017-11-22T09:25:51.110Z,96607.81
2017-11-22T09:28:17.189Z,96605.28
2017-11-22T09:30:49.222Z,96607.69
2017-11-22T09:33:17.370Z,96619.36
2017-11-22T09:35:43.498Z,96614.88
2017-11-22T09:38:09.619Z,96617.95
2017-11-22T09:40:35.810Z,96614.84
2017-11-22T09:43:01.958Z,96613.92
2017-11-22T09:45:28.079Z,96613.39
2017-11-22T09:47:54.181Z,96607.66
2017-11-22T09:50:20.366Z,96597.75
2017-11-22T09:52:46.543Z,96608.61
2017-11-22T09:55:12.644Z,96606.53
2017-11-22T09:57:38.798Z,96619.13
2017-11-22T10:00:04.943Z,96609.92
2017-11-22T10:02:31.161Z,96611.16
2017-11-22T10:04:57.313Z,96612.95
2017-11-22T10:07:23.421Z,96619.98
2017-11-22T10:09:49.617Z,96614.09
2017-11-22T10:12:15.749Z,96601.14
2017-11-22T10:14:41.870Z,96607.43
2017-11-22T10:17:12.105Z,96600.14
2017-11-22T10:19:43.126Z,96592.80
2017-11-22T10:22:09.349Z,96601.75
2017-11-22T10:24:41.529Z,96601.98
2017-11-22T10:27:13.829Z,96598.91
2017-11-22T10:29:46.093Z,96583.60
2017-11-22T10:32:18.350Z,96583.21
2017-11-22T10:34:44.432Z,96575.50
2017-11-22T10:37:10.583Z,96572.63
2017-11-22T10:39:36.692Z,96572.63
2017-11-22T10:42:02.826Z,96571.72
2017-11-22T10:44:28.911Z,96568.85
2017-11-22T10:46:55.059Z,96568.72
2017-11-22T10:49:21.197Z,96574.06
2017-11-22T10:51:47.345Z,96572.92
2017-11-22T10:54:13.486Z,96575.33
2017-11-22T10:56:39.623Z,96573.69
2017-11-22T10:59:05.711Z,96575.47
2017-11-22T11:01:31.858Z,96572.08
2017-11-22T11:03:57.951Z,96565.56
2017-11-22T11:06:24.145Z,96565.87
2017-11-22T11:08:50.239Z,96559.95
2017-11-22T11:11:16.411Z,96562.50
2017-11-22T11:13:42.597Z,96563.95
2017-11-22T11:16:08.669Z,96567.55
2017-11-22T11:18:34.789Z,96564.75
2017-11-22T11:21:00.930Z,96555.33
2017-11-22T11:23:27.037Z,96561.20
2017-11-22T11:25:53.153Z,96549.53
2017-11-22T11:28:19.323Z,96551.02
2017-11-22T11:30:45.450Z,96548.13
2017-11-22T11:33:11.597Z,96549.06
2017-11-22T11:35:49.809Z,96538.09
2017-11-22T11:38:15.937Z,96537.45
2017-11-22T11:40:42.017Z,96532.52
2017-11-22T11:43:08.142Z,96533.85
2017-11-22T11:45:34.257Z,96541.48
2017-11-22T11:48:00.408Z,96536.22
2017-11-22T11:50:26.552Z,96533.48
2017-11-22T11:52:52.730Z,96540.32
2017-11-22T11:55:18.870Z,96531.80
2017-11-22T11:57:44.997Z,96522.88
2017-11-22T12:00:11.160Z,96532.52
2017-11-22T12:02:37.253Z,96533.17
2017-11-22T12:05:03.559Z,96524.83
2017-11-22T12:07:29.710Z,96520.73
2017-11-22T12:09:55.867Z,96531.37
2017-11-22T12:12:21.966Z,96519.88
2017-11-22T12:14:48.077Z,96523.61
2017-11-22T12:17:14.238Z,96521.30
2017-11-22T12:19:40.457Z,96512.81
2017-11-22T12:22:12.562Z,96521.62
2017-11-22T12:24:38.662Z,96510.23
2017-11-22T12:27:04.833Z,96517.73
2017-11-22T12:29:30.929Z,96514.49
2017-11-22T12:31:57.037Z,96506.52
2017-11-22T12:34:23.169Z,96511.28
2017-11-22T12:36:49.305Z,96511.05
2017-11-22T12:39:15.591Z,96512.38
2017-11-22T12:41:41.688Z,96511.81
2017-11-22T12:44:09.750Z,96508.02
2017-11-22T12:46:35.850Z,96516.19
2017-11-22T12:49:02.026Z,96508.73
2017-11-22T12:51:28.131Z,96503.45
2017-11-22T12:53:54.233Z,96509.24
2017-11-22T12:56:20.394Z,96506.59
2017-11-22T12:58:46.458Z,96507.22
2017-11-22T13:01:12.598Z,96500.62
2017-11-22T13:03:38.697Z,96494.95
2017-11-22T13:06:04.825Z,96504.44
2017-11-22T13:08:30.959Z,96503.67
2017-11-22T13:10:57.099Z,96500.59
2017-11-22T13:13:25.360Z,96499.78
2017-11-22T13:15:51.471Z,96498.75
2017-11-22T13:18:17.579Z,96495.09
2017-11-22T13:20:43.712Z,96502.25
2017-11-22T13:23:09.755Z,96498.47
2017-11-22T13:25:35.921Z,96493.33
2017-11-22T13:28:02.118Z,96500.70
2017-11-22T13:30:28.206Z,96502.82
2017-11-22T13:32:54.337Z,96496.55
2017-11-22T13:35:20.400Z,96493.72
2017-11-22T13:37:46.501Z,96497.74
2017-11-22T13:40:12.590Z,96497.50
2017-11-22T13:42:38.726Z,96500.32
2017-11-22T13:45:07.863Z,96489.46
2017-11-22T13:47:33.925Z,96495.05
2017-11-22T13:50:00.045Z,96497.55
2017-11-22T13:52:26.166Z,96501.98
2017-11-22T13:54:52.266Z,96503.05
2017-11-22T13:57:18.413Z,96504.09
2017-11-22T13:59:44.530Z,96503.66
2017-11-22T14:02:10.599Z,96505.47
2017-11-22T14:04:36.737Z,96502.64
2017-11-22T14:07:02.835Z,96495.72
2017-11-22T14:09:28.931Z,96496.25
2017-11-22T14:11:55.097Z,96495.67
2017-11-22T14:14:21.189Z,96497.92
2017-11-22T14:16:47.323Z,96496.57
2017-11-22T14:19:13.473Z,96500.77
2017-11-22T14:21:39.531Z,96505.32
2017-11-22T14:24:05.641Z,96486.69
2017-11-22T14:26:31.767Z,96487.83
2017-11-22T14:28:57.901Z,96492.94
2017-11-22T14:31:24.011Z,96498.09
2017-11-22T14:33:50.125Z,96498.80
2017-11-22T14:36:16.734Z,96493.04
2017-11-22T14:38:42.798Z,96484.53
2017-11-22T14:41:08.862Z,96498.78
2017-11-22T14:43:34.983Z,96499.19
2017-11-22T14:46:01.078Z,96505.44
2017-11-22T14:48:27.213Z,96495.67
2017-11-22T14:50:53.339Z,96492.59
2017-11-22T14:53:19.429Z,96494.11
2017-11-22T14:55:45.621Z,96489.89
2017-11-22T14:58:11.729Z,96492.29
2017-11-22T15:00:37.869Z,96491.73
2017-11-22T15:03:04.030Z,96501.28
2017-11-22T15:05:30.141Z,96493.35
2017-11-22T15:07:56.260Z,96496.98
2017-11-22T15:10:22.397Z,96495.05
2017-11-22T15:12:49.614Z,96498.80
2017-11-22T15:15:15.699Z,96502.42
2017-11-22T15:17:41.853Z,96502.09
2017-11-22T15:20:07.902Z,96505.12
2017-11-22T15:22:34.037Z,96497.88
2017-11-22T15:25:00.268Z,96499.38
2017-11-22T15:27:26.396Z,96495.80
2017-11-22T15:29:52.496Z,96497.83
2017-11-22T15:32:18.644Z,96497.75
2017-11-22T15:34:44.739Z,96503.33
2017-11-22T15:37:10.881Z,96503.63
2017-11-22T15:39:36.993Z,96505.58
2017-11-22T15:42:03.069Z,96508.98
2017-11-22T15:44:29.143Z,96512.95
2017-11-22T15:46:55.313Z,96515.13
2017-11-22T15:49:21.446Z,96513.67
2017-11-22T15:51:47.510Z,96506.12
2017-11-22T15:54:13.623Z,96511.61
2017-11-22T15:56:39.802Z,96507.12
2017-11-22T15:59:05.974Z,96508.63
2017-11-22T16:01:32.098Z,96504.57
2017-11-22T16:03:58.368Z,96504.92
2017-11-22T16:06:24.585Z,96504.88
2017-11-22T16:08:50.780Z,96503.94
2017-11-22T16:11:16.945Z,96499.65
2017-11-22T16:13:43.058Z,96513.65
2017-11-22T16:16:09.209Z,96514.34
2017-11-22T16:18:35.404Z,96518.59
2017-11-22T16:21:01.525Z,96516.39
2017-11-22T16:23:27.726Z,96522.52
2017-11-22T16:25:53.940Z,96519.42
2017-11-22T16:28:20.091Z,96520.40
2017-11-22T16:30:46.258Z,96524.51
2017-11-22T16:33:12.480Z,96523.11
2017-11-22T16:35:38.666Z,96518.71
2017-11-22T16:38:04.871Z,96516.77
2017-11-22T16:40:31.090Z,96521.12
2017-11-22T16:42:57.295Z,96523.81
2017-11-22T16:45:23.454Z,96524.05
2017-11-22T16:47:49.606Z,96523.81
2017-11-22T16:50:15.759Z,96528.34
2017-11-22T16:52:41.897Z,96525.99
2017-11-22T16:55:07.981Z,96527.78
2017-11-22T16:57:34.117Z,96530.89
2017-11-22T17:00:00.206Z,96532.33
2017-11-22T17:02:27.222Z,96533.64
2017-11-22T17:04:53.427Z,96537.00
2017-11-22T17:07:19.762Z,96536.69
2017-11-22T17:09:45.945Z,96533.48
2017-11-22T17:12:13.135Z,96530.92
2017-11-22T17:14:39.284Z,96531.59
2017-11-22T17:17:05.617Z,96530.94
2017-11-22T17:19:31.759Z,96530.98
2017-11-22T17:21:58.050Z,96536.53
2017-11-22T17:24:24.234Z,96530.70
2017-11-22T17:26:50.389Z,96531.63
2017-11-22T17:29:16.490Z,96533.28
2017-11-22T17:31:42.650Z,96534.05
2017-11-22T17:34:08.841Z,96528.23
2017-11-22T17:36:35.097Z,96529.88
2017-11-22T17:39:01.346Z,96530.61
2017-11-22T17:41:27.473Z,96525.98
2017-11-22T17:43:53.760Z,96531.81
2017-11-22T17:46:20.093Z,96533.66
2017-11-22T17:48:46.238Z,96526.47
2017-11-22T17:51:12.383Z,96522.83
2017-11-22T17:53:38.490Z,96524.44
2017-11-22T17:56:04.629Z,96529.50
2017-11-22T17:58:30.837Z,96529.77
2017-11-22T18:00:57.017Z,96517.89
2017-11-22T18:03:23.701Z,96515.80
2017-11-22T18:05:49.799Z,96512.35
2017-11-22T18:08:15.930Z,96515.36
2017-11-22T18:10:42.166Z,96507.02
2017-11-22T18:13:08.262Z,96507.66
2017-11-22T18:15:34.412Z,96515.97
2017-11-22T18:18:00.607Z,96502.13
2017-11-22T18:20:26.678Z,96505.33
2017-11-22T18:22:52.879Z,96509.56
2017-11-22T18:25:19.029Z,96502.39
2017-11-22T18:27:45.265Z,96497.92
2017-11-22T18:30:11.846Z,96499.23
2017-11-22T18:32:38.029Z,96501.17
2017-11-22T18:35:04.806Z,96498.52
2017-11-22T18:37:31.017Z,96498.47
2017-11-22T18:39:57.192Z,96501.05
2017-11-22T18:42:23.313Z,96498.66
2017-11-22T18:44:49.429Z,96498.70
2017-11-22T18:47:15.575Z,96498.75
2017-11-22T18:49:42.754Z,96499.73
2017-11-22T18:52:08.888Z,96508.23
2017-11-22T18:54:35.046Z,96509.05
2017-11-22T18:57:01.335Z,96507.23
2017-11-22T18:59:27.467Z,96505.88
2017-11-22T19:01:53.607Z,96499.27
2017-11-22T19:04:19.722Z,96495.13
2017-11-22T19:06:45.813Z,96492.66
2017-11-22T19:09:11.971Z,96487.31
2017-11-22T19:11:38.116Z,96478.03
2017-11-22T19:14:05.217Z,96484.43
2017-11-22T19:16:31.650Z,96477.23
2017-11-22T19:18:57.805Z,96479.69
2017-11-22T19:21:23.959Z,96476.30
2017-11-22T19:23:50.131Z,96478.12
2017-11-22T19:26:16.228Z,96475.01
2017-11-22T19:28:42.315Z,96485.67
2017-11-22T19:31:08.466Z,96480.20
2017-11-22T19:33:35.686Z,96483.53
2017-11-22T19:36:02.283Z,96481.59
2017-11-22T19:38:29.376Z,96482.85
2017-11-22T19:40:57.649Z,96484.33
2017-11-22T19:43:23.839Z,96477.44
2017-11-22T19:45:49.984Z,96477.02
2017-11-22T19:48:16.219Z,96469.63
2017-11-22T19:50:42.386Z,96462.21
2017-11-22T19:55:41.221Z,96465.57
2017-11-22T19:58:08.102Z,96464.68
2017-11-22T20:00:34.293Z,96462.61
2017-11-22T20:03:01.261Z,96459.91
2017-11-22T20:15:14.746Z,96470.84
2017-11-22T20:17:40.918Z,96471.86
2017-11-22T20:20:07.070Z,96467.24
2017-11-22T20:32:18.281Z,96464.77
2017-11-22T20:34:44.441Z,96466.08
2017-11-22T20:37:10.931Z,96466.39
2017-11-22T20:39:37.193Z,96468.34
2017-11-22T20:42:03.297Z,96466.67
2017-11-22T20:44:29.529Z,96475.28
2017-11-22T20:46:55.692Z,96466.23
2017-11-22T20:49:22.125Z,96478.84
2017-11-22T20:51:48.350Z,96475.92
2017-11-22T20:54:14.504Z,96474.22
2017-11-22T20:56:40.693Z,96466.81
2017-11-22T20:59:06.907Z,96465.42
2017-11-22T21:01:33.051Z,96464.25
2017-11-22T21:03:59.261Z,96462.79
2017-11-22T21:06:25.417Z,96468.80
2017-11-22T21:08:51.545Z,96452.48
2017-11-22T21:11:17.703Z,96464.73
2017-11-22T21:13:44.198Z,96470.34
2017-11-22T21:16:10.334Z,96462.17
2017-11-22T21:18:36.621Z,96465.84
2017-11-22T21:21:02.718Z,96460.75
2017-11-22T21:23:28.833Z,96466.66
2017-11-22T21:25:54.970Z,96461.38
2017-11-22T21:28:21.093Z,96462.02
2017-11-22T21:30:47.430Z,96458.46
2017-11-22T21:33:13.579Z,96461.23
2017-11-22T21:35:39.696Z,96455.47
2017-11-22T21:38:05.817Z,96444.41
2017-11-22T21:40:32.012Z,96443.66
2017-11-22T21:42:58.162Z,96437.88
2017-11-22T21:45:24.249Z,96442.88
2017-11-22T21:47:50.442Z,96438.85
2017-11-22T21:50:16.609Z,96435.49
2017-11-22T21:52:42.770Z,96436.43
2017-11-22T21:55:08.905Z,96436.59
2017-11-22T21:57:36.263Z,96428.56
2017-11-22T22:00:02.541Z,96425.48
2017-11-22T22:02:28.609Z,96425.10
2017-11-22T22:04:54.768Z,96418.06
2017-11-22T22:07:20.917Z,96421.72
2017-11-22T22:09:47.035Z,96416.14
2017-11-22T22:12:13.184Z,96423.81
2017-11-22T22:14:39.331Z,96417.67
2017-11-22T22:17:05.446Z,96416.69
2017-11-22T22:19:31.543Z,96420.70
2017-11-22T22:21:57.676Z,96424.35
2017-11-22T22:24:23.849Z,96429.31
2017-11-22T22:26:49.962Z,96418.37
2017-11-22T22:29:16.085Z,96423.83
2017-11-22T22:31:42.133Z,96430.12
2017-11-22T22:34:08.338Z,96425.41
2017-11-22T22:36:34.494Z,96426.75
2017-11-22T22:39:00.700Z,96424.94
2017-11-22T22:41:26.843Z,96428.06
2017-11-22T22:43:52.962Z,96420.11
2017-11-22T22:46:19.119Z,96421.01
2017-11-22T22:48:45.283Z,96419.20
2017-11-22T22:51:11.442Z,96419.88
2017-11-22T22:53:37.549Z,96420.59
2017-11-22T22:56:03.693Z,96423.86
2017-11-22T22:58:29.826Z,96416.95
2017-11-22T23:00:55.952Z,96419.95
2017-11-22T23:03:22.102Z,96417.85
2017-11-22T23:05:48.268Z,96413.95
2017-11-22T23:08:14.534Z,96417.59
2017-11-22T23:10:40.697Z,96413.80
2017-11-22T23:13:06.821Z,96412.11
2017-11-22T23:15:32.944Z,96414.95
2017-11-22T23:17:59.090Z,96409.59
2017-11-22T23:20:25.253Z,96409.20
2017-11-22T23:22:51.459Z,96402.98
2017-11-22T23:25:17.570Z,96399.11
2017-11-22T23:27:43.722Z,96395.48
2017-11-22T23:30:09.891Z,96398.48
2017-11-22T23:32:36.031Z,96406.02
2017-11-22T23:35:02.230Z,96404.55
2017-11-22T23:37:28.396Z,96392.77
2017-11-22T23:39:54.498Z,96392.91
2017-11-22T23:42:20.617Z,96395.73
2017-11-22T23:44:46.768Z,96394.17
2017-11-22T23:47:12.910Z,96395.56
2017-11-22T23:49:39.125Z,96397.03
2017-11-22T23:52:05.277Z,96395.05
2017-11-22T23:54:31.469Z,96388.06
2017-11-22T23:56:57.590Z,96387.67
2017-11-22T23:59:23.773Z,96384.53
